| time (UTC) | temp F | wind direction | speed MPH | gust MPH | rain 1hr in | rain 24hr in | rain mn in | humidity % | barometer mb |
| 20260504060113 | 57 | 225 | 3.0 | 7.0 | 0.00 | 0.00 | 0.00 | 65 | 1010.2 |
| 20260504044924 | 58 | 225 | 4.0 | 8.0 | 0.00 | 0.00 | 0.00 | 64 | 1010.5 |
| 20260504043924 | 58 | 191 | 4.0 | 8.0 | 0.00 | 0.00 | 0.00 | 63 | 1010.5 |
| 20260504042923 | 58 | 225 | 5.0 | 8.0 | 0.00 | 0.00 | 0.00 | 64 | 1010.8 |
| 20260504041922 | 58 | 225 | 3.0 | 7.0 | 0.00 | 0.00 | 0.00 | 63 | 1010.8 |
| 20260504040920 | 59 | 225 | 3.0 | 7.0 | 0.00 | 0.00 | 0.00 | 63 | 1010.8 |
| 20260504035918 | 58 | 202 | 4.0 | 5.0 | 0.00 | 0.00 | 0.00 | 63 | 1011.2 |
| 20260504034846 | 58 | 225 | 2.0 | 2.0 | 0.00 | 0.00 | 0.00 | 63 | 1011.2 |
| 20260504033845 | 58 | 225 | 1.0 | 7.0 | 0.00 | 0.00 | 0.00 | 63 | 1011.2 |
| 20260504032844 | 58 | 210 | 4.0 | 7.0 | 0.00 | 0.00 | 0.00 | 63 | 1011.2 |
| 20260504031843 | 58 | 225 | 3.0 | 4.0 | 0.00 | 0.00 | 0.00 | 62 | 1011.5 |
| 20260504030811 | 58 | 225 | 3.0 | 5.0 | 0.00 | 0.00 | 0.00 | 62 | 1011.5 |
| 20260504025811 | 59 | 225 | 0.0 | 2.0 | 0.00 | 0.00 | 0.00 | 62 | 1011.5 |
| 20260504024809 | 59 | 225 | 0.0 | 2.0 | 0.00 | 0.00 | 0.00 | 61 | 1011.5 |
| 20260504023808 | 59 | 225 | 0.0 | 0.0 | 0.00 | 0.00 | 0.00 | 61 | 1011.5 |
| 20260504022808 | 59 | 225 | 0.0 | 6.0 | 0.00 | 0.00 | 0.00 | 60 | 1011.5 |
| 20260504021807 | 59 | 225 | 2.0 | 2.0 | 0.00 | 0.00 | 0.00 | 59 | 1011.5 |
| 20260504020735 | 60 | 225 | 2.0 | 2.0 | 0.00 | 0.00 | 0.00 | 59 | 1011.5 |
| 20260504015734 | 60 | 225 | 2.0 | 7.0 | 0.00 | 0.00 | 0.00 | 59 | 1011.5 |
| 20260504014730 | 60 | 225 | 3.0 | 3.0 | 0.00 | 0.00 | 0.00 | 58 | 1011.9 |
| 20260504013727 | 60 | 225 | 0.0 | 5.0 | 0.00 | 0.00 | 0.00 | 58 | 1011.5 |
| 20260504012727 | 61 | 225 | 0.0 | 0.0 | 0.00 | 0.00 | 0.00 | 57 | 1011.5 |
| 20260504011700 | 61 | 225 | 0.0 | 2.0 | 0.00 | 0.00 | 0.00 | 57 | 1011.5 |
| 20260504010700 | 62 | 225 | 0.0 | 0.0 | 0.00 | 0.00 | 0.00 | 56 | 1011.9 |
| 20260504005659 | 62 | 225 | 2.0 | 2.0 | 0.00 | 0.00 | 0.00 | 55 | 1011.9 |
| 20260504004556 | 63 | 225 | 0.0 | 4.0 | 0.00 | 0.00 | 0.00 | 54 | 1011.5 |
| 20260504003553 | 64 | 225 | 0.0 | 3.0 | 0.00 | 0.00 | 0.00 | 54 | 1011.5 |
| 20260504002552 | 64 | 225 | 2.0 | 6.0 | 0.00 | 0.00 | 0.00 | 54 | 1011.5 |
| 20260504001549 | 64 | 225 | 4.0 | 5.0 | 0.00 | 0.00 | 0.00 | 54 | 1011.5 |
| 20260504000513 | 64 | 229 | 5.0 | 8.0 | 0.00 | 0.00 | 0.00 | 52 | 1011.5 |
| 20260503235512 | 65 | 225 | 6.0 | 8.0 | 0.00 | 0.00 | 0.00 | 52 | 1011.5 |
| 20260503234511 | 66 | 231 | 5.0 | 10.0 | 0.00 | 0.00 | 0.00 | 51 | 1011.2 |
| 20260503233440 | 66 | 230 | 6.0 | 14.0 | 0.00 | 0.00 | 0.00 | 50 | 1011.2 |
| 20260503232439 | 67 | 224 | 9.0 | 13.0 | 0.00 | 0.00 | 0.00 | 50 | 1011.2 |
| 20260503231438 | 67 | 220 | 6.0 | 13.0 | 0.00 | 0.00 | 0.00 | 51 | 1011.2 |
| 20260503230437 | 67 | 245 | 8.0 | 13.0 | 0.00 | 0.00 | 0.00 | 51 | 1011.5 |
| 20260503225436 | 67 | 235 | 7.0 | 12.0 | 0.00 | 0.00 | 0.00 | 50 | 1011.5 |
| 20260503224404 | 68 | 238 | 7.0 | 17.0 | 0.00 | 0.00 | 0.00 | 50 | 1011.9 |
| 20260503223301 | 69 | 232 | 11.0 | 17.0 | 0.00 | 0.00 | 0.00 | 50 | 1011.5 |
| 20260503222301 | 70 | 246 | 9.0 | 19.0 | 0.00 | 0.00 | 0.00 | 49 | 1011.9 |
| 20260503221300 | 68 | 233 | 8.0 | 13.0 | 0.00 | 0.00 | 0.00 | 51 | 1012.2 |
| 20260503220259 | 67 | 234 | 9.0 | 15.0 | 0.00 | 0.00 | 0.00 | 52 | 1012.5 |
| 20260503215259 | 67 | 228 | 7.0 | 12.0 | 0.00 | 0.00 | 0.00 | 52 | 1012.5 |
| 20260503214227 | 67 | 229 | 6.0 | 16.0 | 0.00 | 0.00 | 0.00 | 53 | 1012.5 |
| 20260503213226 | 66 | 232 | 5.0 | 15.0 | 0.00 | 0.00 | 0.00 | 54 | 1012.5 |
| 20260503212225 | 66 | 226 | 5.0 | 15.0 | 0.00 | 0.00 | 0.00 | 54 | 1012.9 |
| 20260503211225 | 66 | 249 | 6.0 | 12.0 | 0.00 | 0.00 | 0.00 | 54 | 1013.2 |
| 20260503210221 | 66 | 223 | 7.0 | 11.0 | 0.00 | 0.00 | 0.00 | 54 | 1013.5 |
| 20260503205208 | 66 | 225 | 6.0 | 12.0 | 0.00 | 0.00 | 0.00 | 55 | 1013.5 |
| 20260503204207 | 66 | 226 | 6.0 | 13.0 | 0.00 | 0.00 | 0.00 | 55 | 1013.9 |
| 20260503203207 | 66 | 252 | 9.0 | 21.0 | 0.00 | 0.00 | 0.00 | 54 | 1014.2 |
| 20260503202206 | 65 | 249 | 8.0 | 15.0 | 0.00 | 0.00 | 0.00 | 55 | 1014.6 |
| 20260503201103 | 65 | 222 | 10.0 | 15.0 | 0.00 | 0.00 | 0.00 | 56 | 1014.6 |
| 20260503200031 | 65 | 235 | 7.0 | 17.0 | 0.00 | 0.00 | 0.00 | 56 | 1014.9 |
| 20260503195030 | 65 | 258 | 6.0 | 12.0 | 0.00 | 0.00 | 0.00 | 57 | 1015.2 |
| 20260503193959 | 65 | 245 | 7.0 | 19.0 | 0.00 | 0.00 | 0.00 | 57 | 1015.9 |
| 20260503192927 | 65 | 257 | 9.0 | 14.0 | 0.00 | 0.00 | 0.00 | 57 | 1015.9 |
| 20260503191925 | 65 | 249 | 8.0 | 17.0 | 0.00 | 0.00 | 0.00 | 57 | 1015.9 |
| 20260503190924 | 65 | 242 | 9.0 | 16.0 | 0.00 | 0.00 | 0.00 | 56 | 1015.9 |
| 20260503185923 | 65 | 232 | 9.0 | 15.0 | 0.00 | 0.00 | 0.00 | 58 | 1016.3 |
| 20260503184920 | 65 | 254 | 5.0 | 11.0 | 0.00 | 0.00 | 0.00 | 58 | 1016.6 |
| 20260503183848 | 65 | 231 | 4.0 | 20.0 | 0.00 | 0.00 | 0.00 | 59 | 1016.6 |
| 20260503182831 | 64 | 253 | 6.0 | 15.0 | 0.00 | 0.00 | 0.00 | 59 | 1017.3 |
| 20260503181830 | 64 | 223 | 6.0 | 18.0 | 0.00 | 0.00 | 0.00 | 61 | 1017.3 |
| 20260503180757 | 64 | 247 | 6.0 | 18.0 | 0.00 | 0.00 | 0.00 | 60 | 1017.3 |
| 20260503175745 | 64 | 245 | 6.0 | 14.0 | 0.00 | 0.00 | 0.00 | 61 | 1017.6 |
| 20260503174744 | 63 | 238 | 5.0 | 11.0 | 0.00 | 0.00 | 0.00 | 62 | 1017.6 |
| 20260503173712 | 63 | 227 | 5.0 | 13.0 | 0.00 | 0.00 | 0.00 | 61 | 1017.9 |
| 20260503172711 | 63 | 233 | 4.0 | 13.0 | 0.00 | 0.00 | 0.00 | 62 | 1018.3 |
| 20260503171710 | 62 | 233 | 6.0 | 11.0 | 0.00 | 0.00 | 0.00 | 62 | 1018.3 |
| 20260503170709 | 62 | 241 | 7.0 | 17.0 | 0.00 | 0.00 | 0.00 | 62 | 1018.6 |
| 20260503150700 | 58 | 241 | 7.0 | 10.0 | 0.00 | 0.00 | 0.00 | 71 | 1019.6 |
| 20260503130526 | 49 | 292 | 0.0 | 1.0 | 0.00 | 0.00 | 0.00 | 88 | 1019.6 |
| 20260503110246 | 38 | 337 | 0.0 | 0.0 | 0.00 | 0.00 | 0.00 | 89 | 1019.3 |
| 20260503100225 | 39 | 337 | 0.0 | 0.0 | 0.00 | 0.00 | 0.00 | 88 | 1019.0 |
| 20260503090143 | 39 | 337 | 0.0 | 0.0 | 0.00 | 0.00 | 0.00 | 87 | 1019.3 |
| 20260503081033 | 40 | 337 | 0.0 | 0.0 | 0.00 | 0.00 | 0.00 | 86 | 1019.0 |
| 20260503072029 | 41 | 337 | 0.0 | 0.0 | 0.00 | 0.00 | 0.00 | 86 | 1019.0 |
| 20260503071028 | 41 | 337 | 0.0 | 0.0 | 0.00 | 0.00 | 0.00 | 85 | 1019.0 |